Trondheim, Norway

9:06 PM CEST on June 03, 2015 (GMT +0200)
Halsoen | | Change Station
CLOSE
Current Station
Personal Weather Station
Location: Stjørdal, NORD-TRøNDELAG
Elevation: 60 ft
Nearby Weather Stations

Elev 60 ft 63.47 °N, 10.91 °E | Updated 60 seconds ago

Mostly Cloudy
Mostly Cloudy
48.9 °F
Feels Like 41 °F
N
27.5
Wind Variable Wind from WNW
Gusts 32.4 mph

Today
High -- | Low -- °F
--% Chance of Precip.
Yesterday
High -- | Low -- °F
Precip. -- in
3:19 AM 11:11 PM
Full, 99% visible
Pressure 29.65 in
Visibility 6.2 miles
Clouds Few 1800 ft
Mostly Cloudy 2700 ft
Windchill 41 °F
Dew Point 45 °F
Humidity 86%
Rainfall 0.09 in
Snow Depth Not available.
UV 0.0 out of 12
Pollen Not available.
Air Quality Not available.
Flu Activity Not available.
METAR ENVA 031850Z 27019KT 9999 FEW018 BKN027 08/06 Q1004 TEMPO 28020G30KT SHRA SCT012CB BKN020 RMK WIND 670FT 28020G30KT

More Conditions Fewer Conditions

Pressure 29.65 in
Visibility 6.2 miles
Clouds Few 1800 ft
Mostly Cloudy 2700 ft
Windchill 41 °F
Dew Point 45 °F
Humidity 86%
Rainfall 0.09 in
Snow Depth Not available.
UV 0.0 out of 12
Pollen Not available.
Air Quality Not available.
Flu Activity Not available.
METAR ENVA 031850Z 27019KT 9999 FEW018 BKN027 08/06 Q1004 TEMPO 28020G30KT SHRA SCT012CB BKN020 RMK WIND 670FT 28020G30KT

More Conditions Fewer Conditions

10-Day Weather Forecast

×

Almanac

Astronomy

Jun. 03, 2015 Rise Set
Actual Time
Civil Twilight
Nautical Twilight
Astronomical Twilight
Moon
Length of Visible Light
Length of Day
Tomorrow will be .
, % of the Moon is Illuminated

Today's Extremes

Country Highs Country Lows

Community

WunderPhotos

Upload Photos

1,826,270 photos uploaded!

WunderBlogs® & News

Nearby

Air Quality

  Air Quality AQ Index Pollutant
Not available.

Snow Depth

Station Depth Elevation

Earthquake Activity

City Distance Mag. Time & Date
Minimum magnitude displayed is 2.5.

Coastal Water Temperatures

Place Temperature

Stations

Nearby Weather Stations

Station Location Temp. Windchill Dew Point Humidity Wind Precip. Elev Updated Type